sensor_id;sensor_type;location;lat;lon;timestamp;P1;durP1;ratioP1;P2;durP2;ratioP2
13445;SDS011;6795;51.232;3.764;2023-04-19T00:00:24;19.50;;;15.30;;
13445;SDS011;6795;51.232;3.764;2023-04-19T00:02:52;19.33;;;15.07;;
13445;SDS011;6795;51.232;3.764;2023-04-19T00:05:21;21.88;;;14.35;;
13445;SDS011;6795;51.232;3.764;2023-04-19T00:07:50;19.70;;;13.02;;
13445;SDS011;6795;51.232;3.764;2023-04-19T00:10:20;18.33;;;15.02;;
13445;SDS011;6795;51.232;3.764;2023-04-19T00:12:48;19.30;;;15.20;;
13445;SDS011;6795;51.232;3.764;2023-04-19T00:15:17;18.02;;;15.13;;
13445;SDS011;6795;51.232;3.764;2023-04-19T00:17:45;18.10;;;14.18;;
13445;SDS011;6795;51.232;3.764;2023-04-19T00:20:14;19.83;;;14.32;;
13445;SDS011;6795;51.232;3.764;2023-04-19T00:22:42;19.52;;;14.73;;
13445;SDS011;6795;51.232;3.764;2023-04-19T00:25:11;19.90;;;15.90;;
13445;SDS011;6795;51.232;3.764;2023-04-19T00:27:40;17.98;;;15.30;;
13445;SDS011;6795;51.232;3.764;2023-04-19T00:30:09;19.05;;;14.88;;
13445;SDS011;6795;51.232;3.764;2023-04-19T00:32:38;16.70;;;13.27;;
13445;SDS011;6795;51.232;3.764;2023-04-19T00:35:07;19.30;;;15.35;;
13445;SDS011;6795;51.232;3.764;2023-04-19T00:37:36;19.05;;;15.65;;
13445;SDS011;6795;51.232;3.764;2023-04-19T00:40:05;20.42;;;15.45;;
13445;SDS011;6795;51.232;3.764;2023-04-19T00:42:34;18.63;;;14.55;;
13445;SDS011;6795;51.232;3.764;2023-04-19T00:45:04;19.38;;;14.90;;
13445;SDS011;6795;51.232;3.764;2023-04-19T00:47:33;18.65;;;15.20;;
13445;SDS011;6795;51.232;3.764;2023-04-19T00:50:05;17.63;;;14.93;;
13445;SDS011;6795;51.232;3.764;2023-04-19T00:52:34;18.25;;;14.65;;
13445;SDS011;6795;51.232;3.764;2023-04-19T00:55:03;19.13;;;15.95;;
13445;SDS011;6795;51.232;3.764;2023-04-19T00:57:33;20.10;;;15.65;;
13445;SDS011;6795;51.232;3.764;2023-04-19T01:00:02;19.95;;;15.50;;
13445;SDS011;6795;51.232;3.764;2023-04-19T01:02:35;20.33;;;14.77;;
13445;SDS011;6795;51.232;3.764;2023-04-19T01:05:04;18.65;;;15.52;;
13445;SDS011;6795;51.232;3.764;2023-04-19T01:07:32;17.92;;;14.95;;
13445;SDS011;6795;51.232;3.764;2023-04-19T01:10:01;21.20;;;15.75;;
13445;SDS011;6795;51.232;3.764;2023-04-19T01:12:29;19.30;;;16.20;;
13445;SDS011;6795;51.232;3.764;2023-04-19T01:14:58;19.65;;;16.42;;
13445;SDS011;6795;51.232;3.764;2023-04-19T01:17:27;17.85;;;15.05;;
13445;SDS011;6795;51.232;3.764;2023-04-19T01:19:59;20.30;;;18.20;;
13445;SDS011;6795;51.232;3.764;2023-04-19T01:22:29;23.23;;;20.92;;
13445;SDS011;6795;51.232;3.764;2023-04-19T01:24:58;22.35;;;19.58;;
13445;SDS011;6795;51.232;3.764;2023-04-19T01:27:28;21.17;;;18.90;;
13445;SDS011;6795;51.232;3.764;2023-04-19T01:29:56;22.42;;;20.13;;
13445;SDS011;6795;51.232;3.764;2023-04-19T01:32:25;23.42;;;21.05;;
13445;SDS011;6795;51.232;3.764;2023-04-19T01:34:53;22.30;;;20.10;;
13445;SDS011;6795;51.232;3.764;2023-04-19T01:37:22;22.63;;;20.33;;
13445;SDS011;6795;51.232;3.764;2023-04-19T01:39:51;21.95;;;19.65;;
13445;SDS011;6795;51.232;3.764;2023-04-19T01:42:20;23.27;;;20.65;;
13445;SDS011;6795;51.232;3.764;2023-04-19T01:44:48;24.77;;;20.80;;
13445;SDS011;6795;51.232;3.764;2023-04-19T01:47:16;23.05;;;20.73;;
13445;SDS011;6795;51.232;3.764;2023-04-19T01:49:45;24.77;;;22.17;;
13445;SDS011;6795;51.232;3.764;2023-04-19T01:52:13;22.80;;;20.25;;
13445;SDS011;6795;51.232;3.764;2023-04-19T01:54:42;23.65;;;21.13;;
13445;SDS011;6795;51.232;3.764;2023-04-19T01:57:11;22.33;;;20.02;;
13445;SDS011;6795;51.232;3.764;2023-04-19T01:59:41;24.05;;;21.65;;
13445;SDS011;6795;51.232;3.764;2023-04-19T02:02:10;25.90;;;23.30;;
13445;SDS011;6795;51.232;3.764;2023-04-19T02:04:39;25.02;;;22.23;;
13445;SDS011;6795;51.232;3.764;2023-04-19T02:07:07;24.58;;;22.02;;
13445;SDS011;6795;51.232;3.764;2023-04-19T02:09:35;24.42;;;21.77;;
13445;SDS011;6795;51.232;3.764;2023-04-19T02:12:04;24.35;;;21.85;;
13445;SDS011;6795;51.232;3.764;2023-04-19T02:14:34;25.67;;;19.85;;
13445;SDS011;6795;51.232;3.764;2023-04-19T02:17:02;25.55;;;22.92;;
13445;SDS011;6795;51.232;3.764;2023-04-19T02:19:31;24.17;;;20.25;;
13445;SDS011;6795;51.232;3.764;2023-04-19T02:21:59;27.40;;;20.20;;
13445;SDS011;6795;51.232;3.764;2023-04-19T02:24:28;24.08;;;18.95;;
13445;SDS011;6795;51.232;3.764;2023-04-19T02:26:56;25.35;;;21.92;;
13445;SDS011;6795;51.232;3.764;2023-04-19T02:29:24;24.30;;;21.75;;
13445;SDS011;6795;51.232;3.764;2023-04-19T02:31:54;28.45;;;23.75;;
13445;SDS011;6795;51.232;3.764;2023-04-19T02:34:23;26.13;;;23.40;;
13445;SDS011;6795;51.232;3.764;2023-04-19T02:36:51;26.25;;;23.40;;
13445;SDS011;6795;51.232;3.764;2023-04-19T02:39:19;27.13;;;24.42;;
13445;SDS011;6795;51.232;3.764;2023-04-19T02:41:48;25.67;;;23.00;;
13445;SDS011;6795;51.232;3.764;2023-04-19T02:44:16;26.48;;;23.80;;
13445;SDS011;6795;51.232;3.764;2023-04-19T02:46:47;27.23;;;24.40;;
13445;SDS011;6795;51.232;3.764;2023-04-19T02:49:17;28.05;;;25.23;;
13445;SDS011;6795;51.232;3.764;2023-04-19T02:51:46;28.30;;;25.25;;
13445;SDS011;6795;51.232;3.764;2023-04-19T02:54:14;29.75;;;25.38;;
13445;SDS011;6795;51.232;3.764;2023-04-19T02:56:43;29.23;;;26.15;;
13445;SDS011;6795;51.232;3.764;2023-04-19T02:59:11;28.63;;;25.63;;
13445;SDS011;6795;51.232;3.764;2023-04-19T03:01:39;28.15;;;25.30;;
13445;SDS011;6795;51.232;3.764;2023-04-19T03:04:08;29.25;;;26.30;;
13445;SDS011;6795;51.232;3.764;2023-04-19T03:06:38;28.10;;;25.20;;
13445;SDS011;6795;51.232;3.764;2023-04-19T03:09:07;29.42;;;26.25;;
13445;SDS011;6795;51.232;3.764;2023-04-19T03:11:36;29.08;;;26.13;;
13445;SDS011;6795;51.232;3.764;2023-04-19T03:14:04;28.70;;;25.70;;
13445;SDS011;6795;51.232;3.764;2023-04-19T03:16:33;29.13;;;26.02;;
13445;SDS011;6795;51.232;3.764;2023-04-19T03:19:03;30.70;;;27.40;;
13445;SDS011;6795;51.232;3.764;2023-04-19T03:21:32;27.92;;;24.98;;
13445;SDS011;6795;51.232;3.764;2023-04-19T03:24:02;26.15;;;23.45;;
13445;SDS011;6795;51.232;3.764;2023-04-19T03:26:30;28.63;;;25.70;;
13445;SDS011;6795;51.232;3.764;2023-04-19T03:28:59;26.80;;;24.02;;
13445;SDS011;6795;51.232;3.764;2023-04-19T03:31:28;26.98;;;24.00;;
13445;SDS011;6795;51.232;3.764;2023-04-19T03:33:56;30.00;;;24.30;;
13445;SDS011;6795;51.232;3.764;2023-04-19T03:36:25;27.27;;;21.42;;
13445;SDS011;6795;51.232;3.764;2023-04-19T03:38:54;25.38;;;19.42;;
13445;SDS011;6795;51.232;3.764;2023-04-19T03:41:24;24.77;;;19.00;;
13445;SDS011;6795;51.232;3.764;2023-04-19T03:43:55;23.25;;;18.23;;
13445;SDS011;6795;51.232;3.764;2023-04-19T03:46:24;24.80;;;19.65;;
13445;SDS011;6795;51.232;3.764;2023-04-19T03:48:57;24.88;;;19.45;;
13445;SDS011;6795;51.232;3.764;2023-04-19T03:51:25;24.63;;;19.90;;
13445;SDS011;6795;51.232;3.764;2023-04-19T03:53:54;25.42;;;20.30;;
13445;SDS011;6795;51.232;3.764;2023-04-19T03:56:24;23.88;;;18.73;;
13445;SDS011;6795;51.232;3.764;2023-04-19T03:58:52;23.33;;;18.85;;
13445;SDS011;6795;51.232;3.764;2023-04-19T04:01:21;23.83;;;17.92;;
13445;SDS011;6795;51.232;3.764;2023-04-19T04:03:50;23.13;;;18.67;;
13445;SDS011;6795;51.232;3.764;2023-04-19T04:06:19;23.42;;;16.25;;
13445;SDS011;6795;51.232;3.764;2023-04-19T04:08:47;21.05;;;17.60;;
13445;SDS011;6795;51.232;3.764;2023-04-19T04:11:15;22.60;;;18.75;;
13445;SDS011;6795;51.232;3.764;2023-04-19T04:13:45;22.60;;;18.08;;
13445;SDS011;6795;51.232;3.764;2023-04-19T04:16:15;24.13;;;18.70;;
13445;SDS011;6795;51.232;3.764;2023-04-19T04:18:43;24.02;;;16.45;;
13445;SDS011;6795;51.232;3.764;2023-04-19T04:21:11;25.50;;;16.75;;
13445;SDS011;6795;51.232;3.764;2023-04-19T04:23:40;23.63;;;17.15;;
13445;SDS011;6795;51.232;3.764;2023-04-19T04:26:08;26.70;;;17.30;;
13445;SDS011;6795;51.232;3.764;2023-04-19T04:28:39;22.33;;;18.02;;
13445;SDS011;6795;51.232;3.764;2023-04-19T04:31:09;23.38;;;17.15;;
13445;SDS011;6795;51.232;3.764;2023-04-19T04:33:38;22.65;;;18.25;;
13445;SDS011;6795;51.232;3.764;2023-04-19T04:36:07;27.65;;;18.73;;
13445;SDS011;6795;51.232;3.764;2023-04-19T04:38:37;21.25;;;18.35;;
13445;SDS011;6795;51.232;3.764;2023-04-19T04:41:06;20.85;;;17.40;;
13445;SDS011;6795;51.232;3.764;2023-04-19T04:43:34;24.98;;;17.73;;
13445;SDS011;6795;51.232;3.764;2023-04-19T04:46:04;24.10;;;18.20;;
13445;SDS011;6795;51.232;3.764;2023-04-19T04:48:34;24.92;;;17.85;;
13445;SDS011;6795;51.232;3.764;2023-04-19T04:51:02;21.88;;;17.40;;
13445;SDS011;6795;51.232;3.764;2023-04-19T04:53:30;24.25;;;18.65;;
13445;SDS011;6795;51.232;3.764;2023-04-19T04:55:59;22.65;;;18.10;;
13445;SDS011;6795;51.232;3.764;2023-04-19T04:58:27;22.35;;;18.88;;
13445;SDS011;6795;51.232;3.764;2023-04-19T05:00:56;21.83;;;15.88;;
13445;SDS011;6795;51.232;3.764;2023-04-19T05:03:24;24.55;;;19.05;;
13445;SDS011;6795;51.232;3.764;2023-04-19T05:05:55;20.70;;;16.30;;
13445;SDS011;6795;51.232;3.764;2023-04-19T05:08:24;23.33;;;18.08;;
13445;SDS011;6795;51.232;3.764;2023-04-19T05:10:53;22.15;;;17.75;;
13445;SDS011;6795;51.232;3.764;2023-04-19T05:13:21;20.55;;;16.55;;
13445;SDS011;6795;51.232;3.764;2023-04-19T05:15:50;22.08;;;17.23;;
13445;SDS011;6795;51.232;3.764;2023-04-19T05:18:18;22.70;;;15.95;;
13445;SDS011;6795;51.232;3.764;2023-04-19T05:20:47;19.48;;;15.65;;
13445;SDS011;6795;51.232;3.764;2023-04-19T05:23:17;22.33;;;15.63;;
13445;SDS011;6795;51.232;3.764;2023-04-19T05:25:46;21.25;;;16.33;;
13445;SDS011;6795;51.232;3.764;2023-04-19T05:28:14;19.98;;;15.25;;
13445;SDS011;6795;51.232;3.764;2023-04-19T05:30:43;20.30;;;16.50;;
13445;SDS011;6795;51.232;3.764;2023-04-19T05:33:11;21.13;;;15.43;;
13445;SDS011;6795;51.232;3.764;2023-04-19T05:35:40;26.48;;;16.13;;
13445;SDS011;6795;51.232;3.764;2023-04-19T05:38:08;18.63;;;13.45;;
13445;SDS011;6795;51.232;3.764;2023-04-19T05:40:38;18.40;;;13.32;;
13445;SDS011;6795;51.232;3.764;2023-04-19T05:43:07;20.20;;;14.48;;
13445;SDS011;6795;51.232;3.764;2023-04-19T05:45:38;16.70;;;13.43;;
13445;SDS011;6795;51.232;3.764;2023-04-19T05:48:07;19.52;;;14.75;;
13445;SDS011;6795;51.232;3.764;2023-04-19T05:50:35;20.70;;;15.65;;
13445;SDS011;6795;51.232;3.764;2023-04-19T05:53:04;24.40;;;16.00;;
13445;SDS011;6795;51.232;3.764;2023-04-19T05:55:32;19.42;;;14.82;;
13445;SDS011;6795;51.232;3.764;2023-04-19T05:58:02;21.67;;;15.80;;
13445;SDS011;6795;51.232;3.764;2023-04-19T06:00:30;20.65;;;13.80;;
13445;SDS011;6795;51.232;3.764;2023-04-19T06:02:59;17.80;;;14.50;;
13445;SDS011;6795;51.232;3.764;2023-04-19T06:05:27;18.27;;;15.43;;
13445;SDS011;6795;51.232;3.764;2023-04-19T06:07:56;19.30;;;14.65;;
13445;SDS011;6795;51.232;3.764;2023-04-19T06:10:28;20.13;;;12.82;;
13445;SDS011;6795;51.232;3.764;2023-04-19T06:13:18;17.75;;;13.80;;
13445;SDS011;6795;51.232;3.764;2023-04-19T06:15:47;16.52;;;13.35;;
13445;SDS011;6795;51.232;3.764;2023-04-19T06:18:15;17.77;;;13.15;;
13445;SDS011;6795;51.232;3.764;2023-04-19T06:20:46;17.63;;;12.95;;
13445;SDS011;6795;51.232;3.764;2023-04-19T06:23:14;17.02;;;13.98;;
13445;SDS011;6795;51.232;3.764;2023-04-19T06:25:44;17.38;;;12.18;;
13445;SDS011;6795;51.232;3.764;2023-04-19T06:28:14;14.93;;;12.38;;
13445;SDS011;6795;51.232;3.764;2023-04-19T06:30:44;18.85;;;13.20;;
13445;SDS011;6795;51.232;3.764;2023-04-19T06:33:13;15.02;;;11.88;;
13445;SDS011;6795;51.232;3.764;2023-04-19T06:35:41;15.55;;;12.88;;
13445;SDS011;6795;51.232;3.764;2023-04-19T06:38:10;17.83;;;12.27;;
13445;SDS011;6795;51.232;3.764;2023-04-19T06:40:39;15.57;;;11.55;;
13445;SDS011;6795;51.232;3.764;2023-04-19T06:43:08;17.17;;;12.18;;
13445;SDS011;6795;51.232;3.764;2023-04-19T06:45:36;21.70;;;13.73;;
13445;SDS011;6795;51.232;3.764;2023-04-19T06:48:06;16.17;;;12.35;;
13445;SDS011;6795;51.232;3.764;2023-04-19T06:50:35;17.05;;;13.38;;
13445;SDS011;6795;51.232;3.764;2023-04-19T06:53:04;13.60;;;10.38;;
13445;SDS011;6795;51.232;3.764;2023-04-19T06:55:33;20.02;;;13.45;;
13445;SDS011;6795;51.232;3.764;2023-04-19T06:58:01;19.90;;;13.10;;
13445;SDS011;6795;51.232;3.764;2023-04-19T07:00:30;16.40;;;12.98;;
13445;SDS011;6795;51.232;3.764;2023-04-19T07:02:59;15.77;;;12.43;;
13445;SDS011;6795;51.232;3.764;2023-04-19T07:05:29;14.75;;;12.35;;
13445;SDS011;6795;51.232;3.764;2023-04-19T07:07:58;16.98;;;11.05;;
13445;SDS011;6795;51.232;3.764;2023-04-19T07:10:27;16.13;;;12.82;;
13445;SDS011;6795;51.232;3.764;2023-04-19T07:12:55;32.80;;;12.73;;
13445;SDS011;6795;51.232;3.764;2023-04-19T07:15:24;25.98;;;13.23;;
13445;SDS011;6795;51.232;3.764;2023-04-19T07:17:53;55.45;;;14.60;;
13445;SDS011;6795;51.232;3.764;2023-04-19T07:20:21;13.20;;;10.93;;
13445;SDS011;6795;51.232;3.764;2023-04-19T07:22:51;15.40;;;10.90;;
13445;SDS011;6795;51.232;3.764;2023-04-19T07:25:20;17.30;;;11.43;;
13445;SDS011;6795;51.232;3.764;2023-04-19T07:27:49;13.48;;;9.43;;
13445;SDS011;6795;51.232;3.764;2023-04-19T07:30:18;19.15;;;9.57;;
13445;SDS011;6795;51.232;3.764;2023-04-19T07:32:47;11.93;;;9.90;;
13445;SDS011;6795;51.232;3.764;2023-04-19T07:35:17;14.88;;;10.20;;
13445;SDS011;6795;51.232;3.764;2023-04-19T07:37:46;10.98;;;8.60;;
13445;SDS011;6795;51.232;3.764;2023-04-19T07:40:16;10.63;;;9.52;;
13445;SDS011;6795;51.232;3.764;2023-04-19T07:42:44;13.52;;;9.25;;
13445;SDS011;6795;51.232;3.764;2023-04-19T07:45:13;12.60;;;9.50;;
13445;SDS011;6795;51.232;3.764;2023-04-19T07:47:44;9.65;;;7.70;;
13445;SDS011;6795;51.232;3.764;2023-04-19T07:50:14;11.05;;;9.65;;
13445;SDS011;6795;51.232;3.764;2023-04-19T07:52:43;11.55;;;8.48;;
13445;SDS011;6795;51.232;3.764;2023-04-19T07:55:11;9.20;;;7.15;;
13445;SDS011;6795;51.232;3.764;2023-04-19T07:57:43;11.35;;;8.90;;
13445;SDS011;6795;51.232;3.764;2023-04-19T08:00:14;11.30;;;9.32;;
13445;SDS011;6795;51.232;3.764;2023-04-19T08:02:46;8.02;;;6.60;;
13445;SDS011;6795;51.232;3.764;2023-04-19T08:05:15;9.43;;;6.95;;
13445;SDS011;6795;51.232;3.764;2023-04-19T08:07:44;12.13;;;7.18;;
13445;SDS011;6795;51.232;3.764;2023-04-19T08:10:13;16.17;;;9.07;;
13445;SDS011;6795;51.232;3.764;2023-04-19T08:12:43;9.65;;;7.45;;
13445;SDS011;6795;51.232;3.764;2023-04-19T08:15:31;7.15;;;4.18;;
13445;SDS011;6795;51.232;3.764;2023-04-19T08:18:03;8.98;;;5.97;;
13445;SDS011;6795;51.232;3.764;2023-04-19T08:20:32;7.50;;;5.85;;
13445;SDS011;6795;51.232;3.764;2023-04-19T08:23:00;7.05;;;5.63;;
13445;SDS011;6795;51.232;3.764;2023-04-19T08:25:43;9.07;;;5.70;;
13445;SDS011;6795;51.232;3.764;2023-04-19T08:28:13;9.63;;;5.55;;
13445;SDS011;6795;51.232;3.764;2023-04-19T08:30:42;11.82;;;6.28;;
13445;SDS011;6795;51.232;3.764;2023-04-19T08:33:11;6.10;;;5.60;;
13445;SDS011;6795;51.232;3.764;2023-04-19T08:35:39;6.57;;;5.60;;
13445;SDS011;6795;51.232;3.764;2023-04-19T08:38:08;5.50;;;4.20;;
13445;SDS011;6795;51.232;3.764;2023-04-19T08:40:37;9.15;;;5.57;;
13445;SDS011;6795;51.232;3.764;2023-04-19T08:43:14;8.15;;;5.30;;
13445;SDS011;6795;51.232;3.764;2023-04-19T08:45:45;7.35;;;5.38;;
13445;SDS011;6795;51.232;3.764;2023-04-19T08:48:14;6.82;;;6.03;;
13445;SDS011;6795;51.232;3.764;2023-04-19T08:50:43;5.93;;;5.40;;
13445;SDS011;6795;51.232;3.764;2023-04-19T08:53:30;7.53;;;5.35;;
13445;SDS011;6795;51.232;3.764;2023-04-19T08:56:01;9.68;;;5.65;;
13445;SDS011;6795;51.232;3.764;2023-04-19T08:58:47;6.45;;;5.30;;
13445;SDS011;6795;51.232;3.764;2023-04-19T09:01:36;5.95;;;5.35;;
13445;SDS011;6795;51.232;3.764;2023-04-19T09:04:04;6.15;;;5.20;;
13445;SDS011;6795;51.232;3.764;2023-04-19T09:06:37;5.93;;;5.35;;
13445;SDS011;6795;51.232;3.764;2023-04-19T09:09:13;6.55;;;5.53;;
13445;SDS011;6795;51.232;3.764;2023-04-19T09:11:46;8.38;;;6.13;;
13445;SDS011;6795;51.232;3.764;2023-04-19T09:14:16;5.40;;;4.88;;
13445;SDS011;6795;51.232;3.764;2023-04-19T09:16:46;6.03;;;5.53;;
13445;SDS011;6795;51.232;3.764;2023-04-19T09:19:17;6.38;;;5.25;;
13445;SDS011;6795;51.232;3.764;2023-04-19T09:21:50;6.72;;;6.05;;
13445;SDS011;6795;51.232;3.764;2023-04-19T09:27:25;8.48;;;6.15;;
13445;SDS011;6795;51.232;3.764;2023-04-19T09:29:57;6.65;;;6.03;;
13445;SDS011;6795;51.232;3.764;2023-04-19T09:32:26;8.07;;;6.72;;
13445;SDS011;6795;51.232;3.764;2023-04-19T09:34:56;7.80;;;7.05;;
13445;SDS011;6795;51.232;3.764;2023-04-19T09:37:26;6.55;;;5.43;;
13445;SDS011;6795;51.232;3.764;2023-04-19T09:39:57;6.85;;;6.25;;
13445;SDS011;6795;51.232;3.764;2023-04-19T09:42:40;6.07;;;5.28;;
13445;SDS011;6795;51.232;3.764;2023-04-19T09:45:16;6.57;;;5.97;;
13445;SDS011;6795;51.232;3.764;2023-04-19T09:47:59;6.45;;;5.85;;
13445;SDS011;6795;51.232;3.764;2023-04-19T09:50:32;5.57;;;5.07;;
13445;SDS011;6795;51.232;3.764;2023-04-19T09:53:21;7.03;;;6.30;;
13445;SDS011;6795;51.232;3.764;2023-04-19T09:55:50;6.25;;;5.65;;
13445;SDS011;6795;51.232;3.764;2023-04-19T09:58:28;7.13;;;6.18;;
13445;SDS011;6795;51.232;3.764;2023-04-19T10:01:01;7.93;;;6.25;;
13445;SDS011;6795;51.232;3.764;2023-04-19T10:03:41;8.82;;;6.63;;
13445;SDS011;6795;51.232;3.764;2023-04-19T10:06:14;6.80;;;6.20;;
13445;SDS011;6795;51.232;3.764;2023-04-19T10:08:48;6.00;;;5.50;;
13445;SDS011;6795;51.232;3.764;2023-04-19T10:11:17;5.82;;;4.78;;
13445;SDS011;6795;51.232;3.764;2023-04-19T10:13:48;7.20;;;5.35;;
13445;SDS011;6795;51.232;3.764;2023-04-19T10:16:20;10.52;;;6.22;;
13445;SDS011;6795;51.232;3.764;2023-04-19T10:18:49;7.30;;;6.57;;
13445;SDS011;6795;51.232;3.764;2023-04-19T10:21:20;9.20;;;5.80;;
13445;SDS011;6795;51.232;3.764;2023-04-19T10:23:49;7.63;;;6.97;;
13445;SDS011;6795;51.232;3.764;2023-04-19T10:26:18;7.70;;;6.55;;
13445;SDS011;6795;51.232;3.764;2023-04-19T10:28:50;6.82;;;5.97;;
13445;SDS011;6795;51.232;3.764;2023-04-19T10:31:23;6.78;;;6.05;;
13445;SDS011;6795;51.232;3.764;2023-04-19T10:33:52;8.13;;;6.03;;
13445;SDS011;6795;51.232;3.764;2023-04-19T10:36:21;10.07;;;6.72;;
13445;SDS011;6795;51.232;3.764;2023-04-19T10:38:50;8.48;;;6.60;;
13445;SDS011;6795;51.232;3.764;2023-04-19T10:41:21;9.32;;;6.50;;
13445;SDS011;6795;51.232;3.764;2023-04-19T10:46:36;5.88;;;5.38;;
13445;SDS011;6795;51.232;3.764;2023-04-19T10:49:06;6.43;;;5.82;;
13445;SDS011;6795;51.232;3.764;2023-04-19T10:51:39;6.90;;;5.97;;
13445;SDS011;6795;51.232;3.764;2023-04-19T10:54:26;7.63;;;6.03;;
13445;SDS011;6795;51.232;3.764;2023-04-19T10:56:58;5.57;;;4.70;;
13445;SDS011;6795;51.232;3.764;2023-04-19T10:59:31;6.82;;;6.13;;
13445;SDS011;6795;51.232;3.764;2023-04-19T11:02:01;8.57;;;4.88;;
13445;SDS011;6795;51.232;3.764;2023-04-19T11:07:18;6.57;;;6.00;;
13445;SDS011;6795;51.232;3.764;2023-04-19T11:09:47;8.27;;;6.45;;
13445;SDS011;6795;51.232;3.764;2023-04-19T11:12:18;6.72;;;5.57;;
13445;SDS011;6795;51.232;3.764;2023-04-19T11:14:49;9.82;;;6.00;;
13445;SDS011;6795;51.232;3.764;2023-04-19T11:17:20;11.07;;;6.43;;
13445;SDS011;6795;51.232;3.764;2023-04-19T11:19:53;7.63;;;6.32;;
13445;SDS011;6795;51.232;3.764;2023-04-19T11:22:28;6.88;;;5.63;;
13445;SDS011;6795;51.232;3.764;2023-04-19T11:25:04;6.60;;;5.45;;
13445;SDS011;6795;51.232;3.764;2023-04-19T11:27:37;7.55;;;5.82;;
13445;SDS011;6795;51.232;3.764;2023-04-19T11:30:07;5.88;;;4.35;;
13445;SDS011;6795;51.232;3.764;2023-04-19T11:32:39;7.10;;;6.40;;
13445;SDS011;6795;51.232;3.764;2023-04-19T11:35:16;6.57;;;5.03;;
13445;SDS011;6795;51.232;3.764;2023-04-19T11:37:46;5.13;;;4.63;;
13445;SDS011;6795;51.232;3.764;2023-04-19T11:40:14;8.18;;;5.88;;
13445;SDS011;6795;51.232;3.764;2023-04-19T11:42:44;5.80;;;4.72;;
13445;SDS011;6795;51.232;3.764;2023-04-19T11:45:22;5.95;;;4.47;;
13445;SDS011;6795;51.232;3.764;2023-04-19T11:47:58;3.05;;;2.85;;
13445;SDS011;6795;51.232;3.764;2023-04-19T11:50:30;8.88;;;4.60;;
13445;SDS011;6795;51.232;3.764;2023-04-19T11:53:10;5.50;;;4.78;;
13445;SDS011;6795;51.232;3.764;2023-04-19T11:55:44;13.50;;;4.75;;
13445;SDS011;6795;51.232;3.764;2023-04-19T11:58:25;8.45;;;4.97;;
13445;SDS011;6795;51.232;3.764;2023-04-19T12:00:56;4.10;;;3.50;;
13445;SDS011;6795;51.232;3.764;2023-04-19T12:03:33;8.65;;;3.35;;
13445;SDS011;6795;51.232;3.764;2023-04-19T12:06:02;16.90;;;6.15;;
13445;SDS011;6795;51.232;3.764;2023-04-19T12:08:36;15.35;;;6.85;;
13445;SDS011;6795;51.232;3.764;2023-04-19T12:11:07;6.90;;;4.55;;
13445;SDS011;6795;51.232;3.764;2023-04-19T12:13:36;6.78;;;4.00;;
13445;SDS011;6795;51.232;3.764;2023-04-19T12:16:06;5.18;;;3.85;;
13445;SDS011;6795;51.232;3.764;2023-04-19T12:18:43;7.50;;;3.35;;
13445;SDS011;6795;51.232;3.764;2023-04-19T12:21:24;3.58;;;3.25;;
13445;SDS011;6795;51.232;3.764;2023-04-19T12:23:54;4.97;;;3.25;;
13445;SDS011;6795;51.232;3.764;2023-04-19T12:26:23;6.57;;;3.78;;
13445;SDS011;6795;51.232;3.764;2023-04-19T12:28:54;3.97;;;3.40;;
13445;SDS011;6795;51.232;3.764;2023-04-19T12:31:22;3.85;;;2.85;;
13445;SDS011;6795;51.232;3.764;2023-04-19T12:33:52;4.88;;;3.15;;
13445;SDS011;6795;51.232;3.764;2023-04-19T12:36:21;4.53;;;2.65;;
13445;SDS011;6795;51.232;3.764;2023-04-19T12:38:49;3.53;;;1.67;;
13445;SDS011;6795;51.232;3.764;2023-04-19T12:41:18;2.88;;;2.58;;
13445;SDS011;6795;51.232;3.764;2023-04-19T12:43:46;10.90;;;4.05;;
13445;SDS011;6795;51.232;3.764;2023-04-19T12:46:15;5.13;;;3.55;;
13445;SDS011;6795;51.232;3.764;2023-04-19T12:48:43;3.05;;;2.53;;
13445;SDS011;6795;51.232;3.764;2023-04-19T12:51:13;6.18;;;2.20;;
13445;SDS011;6795;51.232;3.764;2023-04-19T12:53:46;2.45;;;2.15;;
13445;SDS011;6795;51.232;3.764;2023-04-19T12:56:14;3.60;;;1.85;;
13445;SDS011;6795;51.232;3.764;2023-04-19T12:58:43;3.80;;;2.70;;
13445;SDS011;6795;51.232;3.764;2023-04-19T13:01:11;4.00;;;2.50;;
13445;SDS011;6795;51.232;3.764;2023-04-19T13:03:39;3.75;;;2.40;;
13445;SDS011;6795;51.232;3.764;2023-04-19T13:06:08;4.90;;;2.35;;
13445;SDS011;6795;51.232;3.764;2023-04-19T13:08:40;5.40;;;2.03;;
13445;SDS011;6795;51.232;3.764;2023-04-19T13:11:13;4.80;;;2.10;;
13445;SDS011;6795;51.232;3.764;2023-04-19T13:13:43;1.85;;;1.63;;
13445;SDS011;6795;51.232;3.764;2023-04-19T13:16:11;2.78;;;1.50;;
13445;SDS011;6795;51.232;3.764;2023-04-19T13:18:40;3.72;;;1.65;;
13445;SDS011;6795;51.232;3.764;2023-04-19T13:21:09;3.83;;;2.25;;
13445;SDS011;6795;51.232;3.764;2023-04-19T13:23:37;1.98;;;1.50;;
13445;SDS011;6795;51.232;3.764;2023-04-19T13:26:09;5.32;;;2.08;;
13445;SDS011;6795;51.232;3.764;2023-04-19T13:28:38;1.42;;;1.33;;
13445;SDS011;6795;51.232;3.764;2023-04-19T13:31:08;2.55;;;1.00;;
13445;SDS011;6795;51.232;3.764;2023-04-19T13:33:37;3.13;;;1.63;;
13445;SDS011;6795;51.232;3.764;2023-04-19T13:36:05;2.67;;;1.67;;
13445;SDS011;6795;51.232;3.764;2023-04-19T13:38:36;4.97;;;2.22;;
13445;SDS011;6795;51.232;3.764;2023-04-19T13:41:06;8.85;;;2.35;;
13445;SDS011;6795;51.232;3.764;2023-04-19T13:43:34;3.40;;;1.35;;
13445;SDS011;6795;51.232;3.764;2023-04-19T13:46:03;3.72;;;2.03;;
13445;SDS011;6795;51.232;3.764;2023-04-19T13:48:32;2.45;;;1.65;;
13445;SDS011;6795;51.232;3.764;2023-04-19T13:51:01;3.65;;;1.77;;
13445;SDS011;6795;51.232;3.764;2023-04-19T13:53:29;3.63;;;2.58;;
13445;SDS011;6795;51.232;3.764;2023-04-19T13:55:59;2.03;;;1.80;;
13445;SDS011;6795;51.232;3.764;2023-04-19T13:58:29;3.80;;;1.17;;
13445;SDS011;6795;51.232;3.764;2023-04-19T14:00:57;1.05;;;0.80;;
13445;SDS011;6795;51.232;3.764;2023-04-19T14:03:26;0.98;;;0.82;;
13445;SDS011;6795;51.232;3.764;2023-04-19T14:05:54;1.45;;;1.02;;
13445;SDS011;6795;51.232;3.764;2023-04-19T14:08:23;1.27;;;0.80;;
13445;SDS011;6795;51.232;3.764;2023-04-19T14:10:51;2.25;;;1.20;;
13445;SDS011;6795;51.232;3.764;2023-04-19T14:13:20;3.45;;;0.90;;
13445;SDS011;6795;51.232;3.764;2023-04-19T14:15:50;1.60;;;0.70;;
13445;SDS011;6795;51.232;3.764;2023-04-19T14:18:18;1.05;;;0.93;;
13445;SDS011;6795;51.232;3.764;2023-04-19T14:20:47;2.22;;;0.70;;
13445;SDS011;6795;51.232;3.764;2023-04-19T14:23:18;3.03;;;1.55;;
13445;SDS011;6795;51.232;3.764;2023-04-19T14:25:47;3.35;;;2.13;;
13445;SDS011;6795;51.232;3.764;2023-04-19T14:28:15;1.65;;;1.55;;
13445;SDS011;6795;51.232;3.764;2023-04-19T14:30:43;2.70;;;1.33;;
13445;SDS011;6795;51.232;3.764;2023-04-19T14:33:13;4.28;;;1.50;;
13445;SDS011;6795;51.232;3.764;2023-04-19T14:35:42;3.33;;;1.45;;
13445;SDS011;6795;51.232;3.764;2023-04-19T14:38:10;3.85;;;1.27;;
13445;SDS011;6795;51.232;3.764;2023-04-19T14:40:39;2.28;;;1.35;;
13445;SDS011;6795;51.232;3.764;2023-04-19T14:43:07;2.50;;;1.70;;
13445;SDS011;6795;51.232;3.764;2023-04-19T14:45:38;4.10;;;2.00;;
13445;SDS011;6795;51.232;3.764;2023-04-19T14:48:06;3.30;;;2.65;;
13445;SDS011;6795;51.232;3.764;2023-04-19T14:50:36;7.93;;;1.65;;
13445;SDS011;6795;51.232;3.764;2023-04-19T14:53:04;6.03;;;2.30;;
13445;SDS011;6795;51.232;3.764;2023-04-19T14:55:35;2.50;;;1.10;;
13445;SDS011;6795;51.232;3.764;2023-04-19T14:58:03;1.83;;;1.08;;
13445;SDS011;6795;51.232;3.764;2023-04-19T15:00:32;6.15;;;2.58;;
13445;SDS011;6795;51.232;3.764;2023-04-19T15:03:01;1.73;;;1.10;;
13445;SDS011;6795;51.232;3.764;2023-04-19T15:05:29;1.95;;;1.35;;
13445;SDS011;6795;51.232;3.764;2023-04-19T15:08:03;4.78;;;1.63;;
13445;SDS011;6795;51.232;3.764;2023-04-19T15:10:40;2.83;;;1.02;;
13445;SDS011;6795;51.232;3.764;2023-04-19T15:13:08;3.85;;;1.73;;